sensor_id;sensor_type;location;lat;lon;timestamp;temperature;humidity
71942;DHT22;59997;53.300;-6.260;2024-01-15T00:01:44;0.46;90.37
71942;DHT22;59997;53.300;-6.260;2024-01-15T00:04:10;0.45;90.47
71942;DHT22;59997;53.300;-6.260;2024-01-15T00:06:35;0.45;90.53
71942;DHT22;59997;53.300;-6.260;2024-01-15T00:09:01;0.43;90.53
71942;DHT22;59997;53.300;-6.260;2024-01-15T00:11:27;0.43;90.53
71942;DHT22;59997;53.300;-6.260;2024-01-15T00:13:53;0.35;90.55
71942;DHT22;59997;53.300;-6.260;2024-01-15T00:16:18;0.24;90.60
71942;DHT22;59997;53.300;-6.260;2024-01-15T00:18:44;0.18;90.73
71942;DHT22;59997;53.300;-6.260;2024-01-15T00:21:09;0.16;90.75
71942;DHT22;59997;53.300;-6.260;2024-01-15T00:23:35;0.18;90.90
71942;DHT22;59997;53.300;-6.260;2024-01-15T00:26:00;0.12;90.88
71942;DHT22;59997;53.300;-6.260;2024-01-15T00:28:26;0.11;90.85
71942;DHT22;59997;53.300;-6.260;2024-01-15T00:30:51;0.16;90.97
71942;DHT22;59997;53.300;-6.260;2024-01-15T00:33:17;0.18;90.97
71942;DHT22;59997;53.300;-6.260;2024-01-15T00:35:42;0.26;90.93
71942;DHT22;59997;53.300;-6.260;2024-01-15T00:38:08;0.32;90.87
71942;DHT22;59997;53.300;-6.260;2024-01-15T00:40:33;0.29;90.77
71942;DHT22;59997;53.300;-6.260;2024-01-15T00:42:59;0.36;90.77
71942;DHT22;59997;53.300;-6.260;2024-01-15T00:45:24;0.33;90.69
71942;DHT22;59997;53.300;-6.260;2024-01-15T00:47:50;0.16;90.73
71942;DHT22;59997;53.300;-6.260;2024-01-15T00:50:15;0.15;90.76
71942;DHT22;59997;53.300;-6.260;2024-01-15T00:52:41;0.19;90.81
71942;DHT22;59997;53.300;-6.260;2024-01-15T00:55:07;0.08;90.83
71942;DHT22;59997;53.300;-6.260;2024-01-15T00:57:32;0.12;90.90
71942;DHT22;59997;53.300;-6.260;2024-01-15T00:59:58;0.11;90.92
71942;DHT22;59997;53.300;-6.260;2024-01-15T01:02:23;0.25;90.92
71942;DHT22;59997;53.300;-6.260;2024-01-15T01:04:49;0.16;90.82
71942;DHT22;59997;53.300;-6.260;2024-01-15T01:07:14;0.09;90.88
71942;DHT22;59997;53.300;-6.260;2024-01-15T01:09:40;0.09;90.96
71942;DHT22;59997;53.300;-6.260;2024-01-15T01:12:06;-0.09;90.95
71942;DHT22;59997;53.300;-6.260;2024-01-15T01:14:31;-0.23;91.02
71942;DHT22;59997;53.300;-6.260;2024-01-15T01:16:57;-0.23;91.14
71942;DHT22;59997;53.300;-6.260;2024-01-15T01:19:22;-0.24;91.30
71942;DHT22;59997;53.300;-6.260;2024-01-15T01:21:48;-0.31;91.35
71942;DHT22;59997;53.300;-6.260;2024-01-15T01:24:14;-0.38;91.42
71942;DHT22;59997;53.300;-6.260;2024-01-15T01:26:39;-0.21;91.57
71942;DHT22;59997;53.300;-6.260;2024-01-15T01:29:05;-0.30;91.53
71942;DHT22;59997;53.300;-6.260;2024-01-15T01:31:30;-0.54;91.42
71942;DHT22;59997;53.300;-6.260;2024-01-15T01:33:55;-0.72;91.43
71942;DHT22;59997;53.300;-6.260;2024-01-15T01:36:21;-0.82;91.47
71942;DHT22;59997;53.300;-6.260;2024-01-15T01:38:46;-0.71;91.65
71942;DHT22;59997;53.300;-6.260;2024-01-15T01:41:12;-0.61;91.73
71942;DHT22;59997;53.300;-6.260;2024-01-15T01:43:37;-0.73;91.73
71942;DHT22;59997;53.300;-6.260;2024-01-15T01:46:03;-0.86;91.78
71942;DHT22;59997;53.300;-6.260;2024-01-15T01:48:29;-0.79;91.90
71942;DHT22;59997;53.300;-6.260;2024-01-15T01:50:57;-0.61;92.06
71942;DHT22;59997;53.300;-6.260;2024-01-15T01:53:23;-0.71;92.04
71942;DHT22;59997;53.300;-6.260;2024-01-15T01:55:49;-0.41;92.09
71942;DHT22;59997;53.300;-6.260;2024-01-15T01:58:16;-0.38;91.97
71942;DHT22;59997;53.300;-6.260;2024-01-15T02:00:42;-0.50;91.94
71942;DHT22;59997;53.300;-6.260;2024-01-15T02:03:08;-0.48;91.91
71942;DHT22;59997;53.300;-6.260;2024-01-15T02:05:35;-0.31;91.94
71942;DHT22;59997;53.300;-6.260;2024-01-15T02:08:00;-0.24;91.85
71942;DHT22;59997;53.300;-6.260;2024-01-15T02:10:26;-0.21;91.79
71942;DHT22;59997;53.300;-6.260;2024-01-15T02:12:51;-0.24;91.69
71942;DHT22;59997;53.300;-6.260;2024-01-15T02:15:17;-0.11;91.69
71942;DHT22;59997;53.300;-6.260;2024-01-15T02:18:02;-0.02;91.52
71942;DHT22;59997;53.300;-6.260;2024-01-15T02:20:28;-0.07;91.45
71942;DHT22;59997;53.300;-6.260;2024-01-15T02:23:01;-0.19;91.46
71942;DHT22;59997;53.300;-6.260;2024-01-15T02:25:26;-0.27;91.45
71942;DHT22;59997;53.300;-6.260;2024-01-15T02:27:53;-0.30;91.55
71942;DHT22;59997;53.300;-6.260;2024-01-15T02:30:19;-0.37;91.56
71942;DHT22;59997;53.300;-6.260;2024-01-15T02:32:45;-0.34;91.65
71942;DHT22;59997;53.300;-6.260;2024-01-15T02:35:11;-0.28;91.69
71942;DHT22;59997;53.300;-6.260;2024-01-15T02:37:36;-0.31;91.68
71942;DHT22;59997;53.300;-6.260;2024-01-15T02:40:02;-0.31;91.66
71942;DHT22;59997;53.300;-6.260;2024-01-15T02:42:27;-0.31;91.63
71942;DHT22;59997;53.300;-6.260;2024-01-15T02:44:53;-0.45;91.61
71942;DHT22;59997;53.300;-6.260;2024-01-15T02:47:18;-0.48;91.71
71942;DHT22;59997;53.300;-6.260;2024-01-15T02:49:44;-0.54;91.78
71942;DHT22;59997;53.300;-6.260;2024-01-15T02:52:09;-0.55;91.79
71942;DHT22;59997;53.300;-6.260;2024-01-15T02:54:35;-0.48;91.94
71942;DHT22;59997;53.300;-6.260;2024-01-15T02:57:00;-0.51;91.93
71942;DHT22;59997;53.300;-6.260;2024-01-15T02:59:25;-0.51;91.93
71942;DHT22;59997;53.300;-6.260;2024-01-15T03:01:51;-0.68;91.84
71942;DHT22;59997;53.300;-6.260;2024-01-15T03:04:16;-0.78;91.86
71942;DHT22;59997;53.300;-6.260;2024-01-15T03:06:42;-0.72;91.96
71942;DHT22;59997;53.300;-6.260;2024-01-15T03:09:07;-0.60;92.04
71942;DHT22;59997;53.300;-6.260;2024-01-15T03:11:39;-0.60;92.02
71942;DHT22;59997;53.300;-6.260;2024-01-15T03:14:05;-0.44;92.02
71942;DHT22;59997;53.300;-6.260;2024-01-15T03:16:30;-0.44;91.98
71942;DHT22;59997;53.300;-6.260;2024-01-15T03:18:56;-0.37;91.90
71942;DHT22;59997;53.300;-6.260;2024-01-15T03:21:21;-0.31;91.80
71942;DHT22;59997;53.300;-6.260;2024-01-15T03:23:47;-0.37;91.72
71942;DHT22;59997;53.300;-6.260;2024-01-15T03:26:12;-0.33;91.71
71942;DHT22;59997;53.300;-6.260;2024-01-15T03:28:38;-0.31;91.72
71942;DHT22;59997;53.300;-6.260;2024-01-15T03:31:03;-0.37;91.69
71942;DHT22;59997;53.300;-6.260;2024-01-15T03:33:29;-0.45;91.68
71942;DHT22;59997;53.300;-6.260;2024-01-15T03:35:54;-0.61;91.67
71942;DHT22;59997;53.300;-6.260;2024-01-15T03:38:19;-0.58;91.79
71942;DHT22;59997;53.300;-6.260;2024-01-15T03:40:45;-0.58;91.82
71942;DHT22;59997;53.300;-6.260;2024-01-15T03:43:12;-0.60;91.86
71942;DHT22;59997;53.300;-6.260;2024-01-15T03:45:37;-0.55;91.88
71942;DHT22;59997;53.300;-6.260;2024-01-15T03:48:03;-0.48;91.84
71942;DHT22;59997;53.300;-6.260;2024-01-15T03:50:28;-0.64;91.79
71942;DHT22;59997;53.300;-6.260;2024-01-15T03:52:54;-0.69;91.88
71942;DHT22;59997;53.300;-6.260;2024-01-15T03:55:19;-0.76;91.92
71942;DHT22;59997;53.300;-6.260;2024-01-15T03:57:44;-0.75;91.97
71942;DHT22;59997;53.300;-6.260;2024-01-15T04:00:10;-0.72;91.97
71942;DHT22;59997;53.300;-6.260;2024-01-15T04:02:36;-0.68;91.96
71942;DHT22;59997;53.300;-6.260;2024-01-15T04:05:02;-0.83;91.90
71942;DHT22;59997;53.300;-6.260;2024-01-15T04:07:27;-0.89;91.96
71942;DHT22;59997;53.300;-6.260;2024-01-15T04:09:53;-0.92;92.01
71942;DHT22;59997;53.300;-6.260;2024-01-15T04:12:18;-0.95;92.04
71942;DHT22;59997;53.300;-6.260;2024-01-15T04:14:43;-1.10;92.04
71942;DHT22;59997;53.300;-6.260;2024-01-15T04:17:09;-1.10;92.16
71942;DHT22;59997;53.300;-6.260;2024-01-15T04:19:34;-1.08;92.16
71942;DHT22;59997;53.300;-6.260;2024-01-15T04:22:00;-0.96;92.22
71942;DHT22;59997;53.300;-6.260;2024-01-15T04:24:25;-0.90;92.20
71942;DHT22;59997;53.300;-6.260;2024-01-15T04:26:51;-0.73;92.18
71942;DHT22;59997;53.300;-6.260;2024-01-15T04:29:17;-0.61;92.10
71942;DHT22;59997;53.300;-6.260;2024-01-15T04:31:43;-0.66;91.93
71942;DHT22;59997;53.300;-6.260;2024-01-15T04:34:08;-0.66;91.92
71942;DHT22;59997;53.300;-6.260;2024-01-15T04:36:43;-0.72;91.85
71942;DHT22;59997;53.300;-6.260;2024-01-15T04:39:08;-0.75;91.85
71942;DHT22;59997;53.300;-6.260;2024-01-15T04:41:34;-0.80;91.87
71942;DHT22;59997;53.300;-6.260;2024-01-15T04:43:59;-0.89;91.91
71942;DHT22;59997;53.300;-6.260;2024-01-15T04:46:25;-0.87;91.92
71942;DHT22;59997;53.300;-6.260;2024-01-15T04:48:51;-0.97;91.92
71942;DHT22;59997;53.300;-6.260;2024-01-15T04:51:16;-1.14;91.98
71942;DHT22;59997;53.300;-6.260;2024-01-15T04:53:42;-1.24;91.96
71942;DHT22;59997;53.300;-6.260;2024-01-15T04:56:07;-1.48;91.98
71942;DHT22;59997;53.300;-6.260;2024-01-15T04:58:33;-1.67;92.07
71942;DHT22;59997;53.300;-6.260;2024-01-15T05:00:59;-1.56;92.32
71942;DHT22;59997;53.300;-6.260;2024-01-15T05:03:24;-1.48;92.30
71942;DHT22;59997;53.300;-6.260;2024-01-15T05:05:50;-1.37;92.44
71942;DHT22;59997;53.300;-6.260;2024-01-15T05:08:15;-1.34;92.47
71942;DHT22;59997;53.300;-6.260;2024-01-15T05:10:41;-1.34;92.49
71942;DHT22;59997;53.300;-6.260;2024-01-15T05:13:06;-1.41;92.47
71942;DHT22;59997;53.300;-6.260;2024-01-15T05:15:32;-1.35;92.52
71942;DHT22;59997;53.300;-6.260;2024-01-15T05:17:57;-1.54;92.58
71942;DHT22;59997;53.300;-6.260;2024-01-15T05:20:22;-1.65;92.63
71942;DHT22;59997;53.300;-6.260;2024-01-15T05:22:48;-1.76;92.72
71942;DHT22;59997;53.300;-6.260;2024-01-15T05:25:13;-1.60;92.77
71942;DHT22;59997;53.300;-6.260;2024-01-15T05:27:39;-1.75;92.72
71942;DHT22;59997;53.300;-6.260;2024-01-15T05:30:05;-1.80;92.83
71942;DHT22;59997;53.300;-6.260;2024-01-15T05:32:32;-1.70;92.83
71942;DHT22;59997;53.300;-6.260;2024-01-15T05:34:57;-1.60;92.84
71942;DHT22;59997;53.300;-6.260;2024-01-15T05:37:22;-1.76;92.81
71942;DHT22;59997;53.300;-6.260;2024-01-15T05:39:48;-1.67;92.86
71942;DHT22;59997;53.300;-6.260;2024-01-15T05:42:13;-1.49;92.92
71942;DHT22;59997;53.300;-6.260;2024-01-15T05:44:39;-1.41;92.91
71942;DHT22;59997;53.300;-6.260;2024-01-15T05:47:04;-1.34;92.84
71942;DHT22;59997;53.300;-6.260;2024-01-15T05:49:30;-1.21;92.80
71942;DHT22;59997;53.300;-6.260;2024-01-15T05:51:55;-1.34;92.61
71942;DHT22;59997;53.300;-6.260;2024-01-15T05:54:21;-1.39;92.55
71942;DHT22;59997;53.300;-6.260;2024-01-15T05:56:46;-1.48;92.54
71942;DHT22;59997;53.300;-6.260;2024-01-15T05:59:12;-1.38;92.54
71942;DHT22;59997;53.300;-6.260;2024-01-15T06:01:37;-1.60;92.52
71942;DHT22;59997;53.300;-6.260;2024-01-15T06:04:03;-1.80;92.51
71942;DHT22;59997;53.300;-6.260;2024-01-15T06:06:28;-1.79;92.56
71942;DHT22;59997;53.300;-6.260;2024-01-15T06:08:54;-1.67;92.64
71942;DHT22;59997;53.300;-6.260;2024-01-15T06:11:19;-1.63;92.67
71942;DHT22;59997;53.300;-6.260;2024-01-15T06:13:45;-1.66;92.67
71942;DHT22;59997;53.300;-6.260;2024-01-15T06:16:15;-1.48;92.69
71942;DHT22;59997;53.300;-6.260;2024-01-15T06:18:41;-1.51;92.62
71942;DHT22;59997;53.300;-6.260;2024-01-15T06:21:07;-1.35;92.59
71942;DHT22;59997;53.300;-6.260;2024-01-15T06:23:33;-1.37;92.57
71942;DHT22;59997;53.300;-6.260;2024-01-15T06:25:58;-1.41;92.44
71942;DHT22;59997;53.300;-6.260;2024-01-15T06:28:24;-1.25;92.43
71942;DHT22;59997;53.300;-6.260;2024-01-15T06:30:49;-1.28;92.29
71942;DHT22;59997;53.300;-6.260;2024-01-15T06:33:14;-1.54;92.24
71942;DHT22;59997;53.300;-6.260;2024-01-15T06:35:40;-1.51;92.30
71942;DHT22;59997;53.300;-6.260;2024-01-15T06:38:05;-1.59;92.31
71942;DHT22;59997;53.300;-6.260;2024-01-15T06:40:31;-1.83;92.35
71942;DHT22;59997;53.300;-6.260;2024-01-15T06:42:56;-1.83;92.44
71942;DHT22;59997;53.300;-6.260;2024-01-15T06:45:22;-1.82;92.51
71942;DHT22;59997;53.300;-6.260;2024-01-15T06:47:47;-1.80;92.50
71942;DHT22;59997;53.300;-6.260;2024-01-15T06:50:13;-1.70;92.57
71942;DHT22;59997;53.300;-6.260;2024-01-15T06:52:38;-1.62;92.61
71942;DHT22;59997;53.300;-6.260;2024-01-15T06:55:04;-1.73;92.56
71942;DHT22;59997;53.300;-6.260;2024-01-15T06:57:31;-1.67;92.51
71942;DHT22;59997;53.300;-6.260;2024-01-15T06:59:56;-1.83;92.52
71942;DHT22;59997;53.300;-6.260;2024-01-15T07:02:22;-1.83;92.60
71942;DHT22;59997;53.300;-6.260;2024-01-15T07:04:47;-1.77;92.64
71942;DHT22;59997;53.300;-6.260;2024-01-15T07:07:13;-1.91;92.66
71942;DHT22;59997;53.300;-6.260;2024-01-15T07:09:38;-2.12;92.72
71942;DHT22;59997;53.300;-6.260;2024-01-15T07:12:04;-2.26;92.78
71942;DHT22;59997;53.300;-6.260;2024-01-15T07:14:29;-2.26;92.82
71942;DHT22;59997;53.300;-6.260;2024-01-15T07:16:55;-2.00;92.82
71942;DHT22;59997;53.300;-6.260;2024-01-15T07:19:20;-1.98;92.83
71942;DHT22;59997;53.300;-6.260;2024-01-15T07:21:45;-2.01;92.81
71942;DHT22;59997;53.300;-6.260;2024-01-15T07:24:11;-2.08;92.86
71942;DHT22;59997;53.300;-6.260;2024-01-15T07:26:37;-2.14;92.86
71942;DHT22;59997;53.300;-6.260;2024-01-15T07:29:02;-2.08;92.88
71942;DHT22;59997;53.300;-6.260;2024-01-15T07:31:28;-2.15;92.92
71942;DHT22;59997;53.300;-6.260;2024-01-15T07:33:54;-2.17;92.94
71942;DHT22;59997;53.300;-6.260;2024-01-15T07:36:19;-2.07;92.96
71942;DHT22;59997;53.300;-6.260;2024-01-15T07:38:45;-1.98;92.99
71942;DHT22;59997;53.300;-6.260;2024-01-15T07:41:10;-1.98;92.98
71942;DHT22;59997;53.300;-6.260;2024-01-15T07:43:38;-1.98;92.96
71942;DHT22;59997;53.300;-6.260;2024-01-15T07:46:04;-1.89;92.99
71942;DHT22;59997;53.300;-6.260;2024-01-15T07:48:29;-1.90;92.94
71942;DHT22;59997;53.300;-6.260;2024-01-15T07:50:55;-1.87;92.93
71942;DHT22;59997;53.300;-6.260;2024-01-15T07:53:20;-1.82;92.92
71942;DHT22;59997;53.300;-6.260;2024-01-15T07:55:46;-1.70;92.91
71942;DHT22;59997;53.300;-6.260;2024-01-15T07:58:11;-1.72;92.87
71942;DHT22;59997;53.300;-6.260;2024-01-15T08:00:37;-1.73;92.86
71942;DHT22;59997;53.300;-6.260;2024-01-15T08:03:02;-1.70;92.80
71942;DHT22;59997;53.300;-6.260;2024-01-15T08:05:28;-1.66;92.77
71942;DHT22;59997;53.300;-6.260;2024-01-15T08:07:53;-1.65;92.74
71942;DHT22;59997;53.300;-6.260;2024-01-15T08:10:19;-1.66;92.68
71942;DHT22;59997;53.300;-6.260;2024-01-15T08:12:44;-1.72;92.66
71942;DHT22;59997;53.300;-6.260;2024-01-15T08:15:10;-1.58;92.65
71942;DHT22;59997;53.300;-6.260;2024-01-15T08:17:35;-1.65;92.55
71942;DHT22;59997;53.300;-6.260;2024-01-15T08:20:01;-1.62;92.52
71942;DHT22;59997;53.300;-6.260;2024-01-15T08:22:26;-1.62;92.55
71942;DHT22;59997;53.300;-6.260;2024-01-15T08:24:52;-1.63;92.46
71942;DHT22;59997;53.300;-6.260;2024-01-15T08:27:18;-1.75;92.43
71942;DHT22;59997;53.300;-6.260;2024-01-15T08:29:45;-1.70;92.42
71942;DHT22;59997;53.300;-6.260;2024-01-15T08:32:10;-1.69;92.47
71942;DHT22;59997;53.300;-6.260;2024-01-15T08:34:39;-1.63;92.44
71942;DHT22;59997;53.300;-6.260;2024-01-15T08:37:05;-1.67;92.40
71942;DHT22;59997;53.300;-6.260;2024-01-15T08:39:30;-1.62;92.36
71942;DHT22;59997;53.300;-6.260;2024-01-15T08:41:56;-1.72;92.35
71942;DHT22;59997;53.300;-6.260;2024-01-15T08:44:21;-1.82;92.36
71942;DHT22;59997;53.300;-6.260;2024-01-15T08:46:46;-2.00;92.38
71942;DHT22;59997;53.300;-6.260;2024-01-15T08:49:12;-1.95;92.43
71942;DHT22;59997;53.300;-6.260;2024-01-15T08:51:38;-1.83;92.44
71942;DHT22;59997;53.300;-6.260;2024-01-15T08:54:04;-1.69;92.44
71942;DHT22;59997;53.300;-6.260;2024-01-15T08:56:30;-1.63;92.37
71942;DHT22;59997;53.300;-6.260;2024-01-15T08:58:55;-1.56;92.30
71942;DHT22;59997;53.300;-6.260;2024-01-15T09:01:21;-1.49;92.26
71942;DHT22;59997;53.300;-6.260;2024-01-15T09:03:46;-1.44;92.18
71942;DHT22;59997;53.300;-6.260;2024-01-15T09:06:13;-1.25;92.02
71942;DHT22;59997;53.300;-6.260;2024-01-15T09:08:39;-1.20;91.82
71942;DHT22;59997;53.300;-6.260;2024-01-15T09:11:04;-1.24;91.72
71942;DHT22;59997;53.300;-6.260;2024-01-15T09:13:30;-1.34;91.68
71942;DHT22;59997;53.300;-6.260;2024-01-15T09:15:56;-1.24;91.69
71942;DHT22;59997;53.300;-6.260;2024-01-15T09:18:21;-1.18;91.65
71942;DHT22;59997;53.300;-6.260;2024-01-15T09:20:47;-1.03;91.59
71942;DHT22;59997;53.300;-6.260;2024-01-15T09:23:12;-1.00;91.43
71942;DHT22;59997;53.300;-6.260;2024-01-15T09:25:38;-0.92;91.33
71942;DHT22;59997;53.300;-6.260;2024-01-15T09:28:03;-0.87;91.23
71942;DHT22;59997;53.300;-6.260;2024-01-15T09:30:29;-0.73;91.13
71942;DHT22;59997;53.300;-6.260;2024-01-15T09:32:54;-0.75;91.03
71942;DHT22;59997;53.300;-6.260;2024-01-15T09:35:20;-0.75;91.05
71942;DHT22;59997;53.300;-6.260;2024-01-15T09:37:45;-0.66;90.97
71942;DHT22;59997;53.300;-6.260;2024-01-15T09:40:14;-0.62;90.85
71942;DHT22;59997;53.300;-6.260;2024-01-15T09:42:41;-0.58;90.80
71942;DHT22;59997;53.300;-6.260;2024-01-15T09:45:07;-0.54;90.82
71942;DHT22;59997;53.300;-6.260;2024-01-15T09:47:35;-0.48;90.78
71942;DHT22;59997;53.300;-6.260;2024-01-15T09:50:01;-0.40;90.80
71942;DHT22;59997;53.300;-6.260;2024-01-15T09:52:30;-0.30;90.61
71942;DHT22;59997;53.300;-6.260;2024-01-15T09:54:58;-0.17;90.48
71942;DHT22;59997;53.300;-6.260;2024-01-15T09:57:25;0.02;90.44
71942;DHT22;59997;53.300;-6.260;2024-01-15T09:59:51;0.21;90.23
71942;DHT22;59997;53.300;-6.260;2024-01-15T10:02:18;0.39;90.09
71942;DHT22;59997;53.300;-6.260;2024-01-15T10:04:44;0.28;89.82
71942;DHT22;59997;53.300;-6.260;2024-01-15T10:07:14;0.22;90.07
71942;DHT22;59997;53.300;-6.260;2024-01-15T10:09:41;0.21;90.21
71942;DHT22;59997;53.300;-6.260;2024-01-15T10:12:07;0.21;90.24
71942;DHT22;59997;53.300;-6.260;2024-01-15T10:14:33;0.22;90.26
71942;DHT22;59997;53.300;-6.260;2024-01-15T10:16:58;0.49;90.11
71942;DHT22;59997;53.300;-6.260;2024-01-15T10:19:24;0.80;90.21
71942;DHT22;59997;53.300;-6.260;2024-01-15T10:21:49;1.22;89.55
71942;DHT22;59997;53.300;-6.260;2024-01-15T10:24:15;1.40;88.92
71942;DHT22;59997;53.300;-6.260;2024-01-15T10:26:40;1.47;88.67
71942;DHT22;59997;53.300;-6.260;2024-01-15T10:29:06;1.60;88.61
71942;DHT22;59997;53.300;-6.260;2024-01-15T10:31:31;1.63;88.52
71942;DHT22;59997;53.300;-6.260;2024-01-15T10:34:17;1.81;88.38
71942;DHT22;59997;53.300;-6.260;2024-01-15T10:36:45;1.88;87.86
71942;DHT22;59997;53.300;-6.260;2024-01-15T10:39:13;1.65;88.11
71942;DHT22;59997;53.300;-6.260;2024-01-15T10:41:39;1.53;88.56
71942;DHT22;59997;53.300;-6.260;2024-01-15T10:44:04;1.42;88.45
71942;DHT22;59997;53.300;-6.260;2024-01-15T10:46:31;1.32;88.81
71942;DHT22;59997;53.300;-6.260;2024-01-15T10:48:57;1.30;88.88
71942;DHT22;59997;53.300;-6.260;2024-01-15T10:51:23;1.51;88.61
71942;DHT22;59997;53.300;-6.260;2024-01-15T10:53:51;1.70;88.13
71942;DHT22;59997;53.300;-6.260;2024-01-15T10:56:19;1.85;87.89
71942;DHT22;59997;53.300;-6.260;2024-01-15T10:58:46;1.85;87.89
71942;DHT22;59997;53.300;-6.260;2024-01-15T11:01:12;1.88;87.58
71942;DHT22;59997;53.300;-6.260;2024-01-15T11:03:38;1.83;87.78
71942;DHT22;59997;53.300;-6.260;2024-01-15T11:06:16;1.94;87.71
71942;DHT22;59997;53.300;-6.260;2024-01-15T11:08:43;1.95;87.47
71942;DHT22;59997;53.300;-6.260;2024-01-15T11:11:08;1.86;87.53
71942;DHT22;59997;53.300;-6.260;2024-01-15T11:16:07;1.99;87.35
71942;DHT22;59997;53.300;-6.260;2024-01-15T11:19:01;2.19;87.17
71942;DHT22;59997;53.300;-6.260;2024-01-15T11:21:28;2.26;87.06
71942;DHT22;59997;53.300;-6.260;2024-01-15T11:26:38;2.42;86.41
71942;DHT22;59997;53.300;-6.260;2024-01-15T11:29:32;2.44;86.15
71942;DHT22;59997;53.300;-6.260;2024-01-15T11:32:06;2.62;85.83
71942;DHT22;59997;53.300;-6.260;2024-01-15T11:34:57;2.64;85.23
71942;DHT22;59997;53.300;-6.260;2024-01-15T11:40:37;2.92;84.44
71942;DHT22;59997;53.300;-6.260;2024-01-15T11:43:04;3.32;83.76
71942;DHT22;59997;53.300;-6.260;2024-01-15T11:45:31;3.72;83.48
71942;DHT22;59997;53.300;-6.260;2024-01-15T11:50:40;4.05;82.16
71942;DHT22;59997;53.300;-6.260;2024-01-15T11:53:13;4.05;81.22
71942;DHT22;59997;53.300;-6.260;2024-01-15T11:55:43;3.89;81.50
71942;DHT22;59997;53.300;-6.260;2024-01-15T11:58:10;3.93;81.48
71942;DHT22;59997;53.300;-6.260;2024-01-15T12:00:48;3.94;81.61
71942;DHT22;59997;53.300;-6.260;2024-01-15T12:03:14;4.07;81.10
71942;DHT22;59997;53.300;-6.260;2024-01-15T12:05:40;3.94;80.89
71942;DHT22;59997;53.300;-6.260;2024-01-15T12:08:08;3.93;80.96
71942;DHT22;59997;53.300;-6.260;2024-01-15T12:10:39;3.89;81.50
71942;DHT22;59997;53.300;-6.260;2024-01-15T12:13:13;4.00;81.59
71942;DHT22;59997;53.300;-6.260;2024-01-15T12:15:39;4.15;81.48
71942;DHT22;59997;53.300;-6.260;2024-01-15T12:18:09;4.31;81.25
71942;DHT22;59997;53.300;-6.260;2024-01-15T12:20:34;4.38;80.99
71942;DHT22;59997;53.300;-6.260;2024-01-15T12:23:01;4.31;79.92
71942;DHT22;59997;53.300;-6.260;2024-01-15T12:25:29;4.39;79.80
71942;DHT22;59997;53.300;-6.260;2024-01-15T12:27:55;4.27;80.17
71942;DHT22;59997;53.300;-6.260;2024-01-15T12:30:21;4.21;80.48
71942;DHT22;59997;53.300;-6.260;2024-01-15T12:32:47;4.22;80.50
71942;DHT22;59997;53.300;-6.260;2024-01-15T12:35:14;4.15;80.79
71942;DHT22;59997;53.300;-6.260;2024-01-15T12:37:41;4.27;80.69
71942;DHT22;59997;53.300;-6.260;2024-01-15T12:40:07;4.25;80.55
71942;DHT22;59997;53.300;-6.260;2024-01-15T12:42:43;4.24;80.20
71942;DHT22;59997;53.300;-6.260;2024-01-15T12:45:11;3.87;80.62
71942;DHT22;59997;53.300;-6.260;2024-01-15T12:47:37;3.66;81.32
71942;DHT22;59997;53.300;-6.260;2024-01-15T12:50:05;3.51;81.99
71942;DHT22;59997;53.300;-6.260;2024-01-15T12:52:32;3.28;82.25
71942;DHT22;59997;53.300;-6.260;2024-01-15T12:54:57;3.06;83.39
71942;DHT22;59997;53.300;-6.260;2024-01-15T12:57:23;3.10;83.77
71942;DHT22;59997;53.300;-6.260;2024-01-15T12:59:49;3.03;84.07
71942;DHT22;59997;53.300;-6.260;2024-01-15T13:02:15;3.02;84.14
71942;DHT22;59997;53.300;-6.260;2024-01-15T13:04:42;2.97;84.08
71942;DHT22;59997;53.300;-6.260;2024-01-15T13:07:08;2.95;84.29
71942;DHT22;59997;53.300;-6.260;2024-01-15T13:09:34;3.03;84.42
71942;DHT22;59997;53.300;-6.260;2024-01-15T13:12:01;2.93;84.70
71942;DHT22;59997;53.300;-6.260;2024-01-15T13:14:27;2.79;84.42
71942;DHT22;59997;53.300;-6.260;2024-01-15T13:16:52;2.78;84.60
71942;DHT22;59997;53.300;-6.260;2024-01-15T13:19:19;2.75;84.87
71942;DHT22;59997;53.300;-6.260;2024-01-15T13:21:46;2.71;85.13
71942;DHT22;59997;53.300;-6.260;2024-01-15T13:24:11;2.66;85.40
71942;DHT22;59997;53.300;-6.260;2024-01-15T13:26:37;2.64;85.02
71942;DHT22;59997;53.300;-6.260;2024-01-15T13:29:03;2.64;85.22
71942;DHT22;59997;53.300;-6.260;2024-01-15T13:31:32;2.64;85.44
71942;DHT22;59997;53.300;-6.260;2024-01-15T13:33:59;2.64;85.51
71942;DHT22;59997;53.300;-6.260;2024-01-15T13:36:27;2.64;85.60
71942;DHT22;59997;53.300;-6.260;2024-01-15T13:38:53;2.62;85.56
71942;DHT22;59997;53.300;-6.260;2024-01-15T13:41:22;2.64;85.76
71942;DHT22;59997;53.300;-6.260;2024-01-15T13:43:53;2.65;85.69
71942;DHT22;59997;53.300;-6.260;2024-01-15T13:46:19;2.68;85.36
71942;DHT22;59997;53.300;-6.260;2024-01-15T13:48:45;2.72;85.73
71942;DHT22;59997;53.300;-6.260;2024-01-15T13:51:10;2.81;85.59
71942;DHT22;59997;53.300;-6.260;2024-01-15T13:53:38;2.83;85.55
71942;DHT22;59997;53.300;-6.260;2024-01-15T13:56:04;2.81;85.22
71942;DHT22;59997;53.300;-6.260;2024-01-15T13:58:30;2.78;85.03
71942;DHT22;59997;53.300;-6.260;2024-01-15T14:00:56;2.82;85.18
71942;DHT22;59997;53.300;-6.260;2024-01-15T14:03:21;2.82;85.23
71942;DHT22;59997;53.300;-6.260;2024-01-15T14:05:47;2.78;85.29
71942;DHT22;59997;53.300;-6.260;2024-01-15T14:08:12;2.81;85.51
71942;DHT22;59997;53.300;-6.260;2024-01-15T14:10:38;2.93;85.45
71942;DHT22;59997;53.300;-6.260;2024-01-15T14:13:04;2.91;85.29
71942;DHT22;59997;53.300;-6.260;2024-01-15T14:15:29;2.89;85.13
71942;DHT22;59997;53.300;-6.260;2024-01-15T14:17:55;2.86;85.16
71942;DHT22;59997;53.300;-6.260;2024-01-15T14:20:20;2.86;85.40
71942;DHT22;59997;53.300;-6.260;2024-01-15T14:22:46;2.85;86.02
71942;DHT22;59997;53.300;-6.260;2024-01-15T14:25:11;2.81;85.84
71942;DHT22;59997;53.300;-6.260;2024-01-15T14:27:37;2.74;85.81
71942;DHT22;59997;53.300;-6.260;2024-01-15T14:30:03;2.66;85.94
71942;DHT22;59997;53.300;-6.260;2024-01-15T14:32:28;2.61;86.09
71942;DHT22;59997;53.300;-6.260;2024-01-15T14:34:54;2.52;86.18
71942;DHT22;59997;53.300;-6.260;2024-01-15T14:37:21;2.57;86.34
71942;DHT22;59997;53.300;-6.260;2024-01-15T14:39:47;2.51;86.42
71942;DHT22;59997;53.300;-6.260;2024-01-15T14:42:12;2.45;86.74
71942;DHT22;59997;53.300;-6.260;2024-01-15T14:44:38;2.36;86.83
71942;DHT22;59997;53.300;-6.260;2024-01-15T14:47:06;2.33;86.73
71942;DHT22;59997;53.300;-6.260;2024-01-15T14:49:31;2.29;87.03
71942;DHT22;59997;53.300;-6.260;2024-01-15T14:51:57;2.24;86.92
71942;DHT22;59997;53.300;-6.260;2024-01-15T14:54:23;2.23;87.05
71942;DHT22;59997;53.300;-6.260;2024-01-15T14:56:48;2.16;87.26
71942;DHT22;59997;53.300;-6.260;2024-01-15T14:59:14;2.12;87.48
71942;DHT22;59997;53.300;-6.260;2024-01-15T15:01:39;2.09;87.37
71942;DHT22;59997;53.300;-6.260;2024-01-15T15:04:05;2.05;87.66
71942;DHT22;59997;53.300;-6.260;2024-01-15T15:06:30;2.10;87.66
71942;DHT22;59997;53.300;-6.260;2024-01-15T15:08:56;2.09;87.70
71942;DHT22;59997;53.300;-6.260;2024-01-15T15:11:25;2.07;87.75
71942;DHT22;59997;53.300;-6.260;2024-01-15T15:13:51;1.98;88.00
71942;DHT22;59997;53.300;-6.260;2024-01-15T15:16:17;1.95;88.18
71942;DHT22;59997;53.300;-6.260;2024-01-15T15:18:42;1.91;88.16
71942;DHT22;59997;53.300;-6.260;2024-01-15T15:21:09;1.89;88.30
71942;DHT22;59997;53.300;-6.260;2024-01-15T15:23:34;1.89;88.03
71942;DHT22;59997;53.300;-6.260;2024-01-15T15:26:00;1.82;88.22
71942;DHT22;59997;53.300;-6.260;2024-01-15T15:28:25;1.81;88.33